BST,Max TemperatureF,Mean TemperatureF,Min TemperatureF,Max Dew PointF,MeanDew PointF,Min DewpointF,Max Humidity, Mean Humidity, Min Humidity, Max Sea Level PressureIn, Mean Sea Level PressureIn, Min Sea Level PressureIn, Max VisibilityMiles, Mean VisibilityMiles, Min VisibilityMiles, Max Wind SpeedMPH, Mean Wind SpeedMPH, Max Gust SpeedMPH,PrecipitationIn, CloudCover, Events, WindDirDegrees
2013-9-1,72,60,48,52,46,41,82,59,30,30.46,30.40,30.33,19,13,6,16,7,,0.00,,,277
2013-9-2,79,66,52,57,54,50,88,66,37,30.36,30.33,30.30,19,8,6,14,9,,0.00,1,,281
2013-9-3,78,68,57,59,57,54,100,72,34,30.37,30.32,30.27,19,8,6,7,4,17,0.00,4,,254
2013-9-4,83,70,56,61,56,50,100,64,24,30.27,30.14,30.01,19,7,5,12,4,,0.00,1,Fog,146
2013-9-5,85,71,57,61,56,46,94,62,25,30.01,29.86,29.77,19,5,2,10,4,,0.00,,,310
2013-9-6,64,60,55,59,53,47,94,76,48,29.86,29.78,29.74,19,7,4,14,7,16,0.04,4,Rain,250
2013-9-7,67,59,51,50,48,45,88,69,37,30.06,29.94,29.83,6,6,6,16,9,,0.01,1,Rain,190
2013-9-8,65,56,46,52,48,43,100,81,45,30.08,30.06,30.04,19,7,4,20,6,,0.12,1,Rain,198
2013-9-9,56,52,48,54,50,45,94,90,79,30.07,30.02,29.98,19,7,2,9,5,,0.12,4,Rain,108
2013-9-10,63,56,48,50,47,45,94,72,44,30.16,30.12,30.06,19,7,6,14,8,,0.00,2,Rain,312
2013-9-11,63,58,53,54,49,46,94,74,45,30.19,30.15,30.12,13,6,5,10,8,21,0.03,4,Rain,321
2013-9-12,66,60,54,59,55,53,100,86,58,30.13,30.10,30.06,19,6,2,10,4,,0.04,5,Rain,243
2013-9-13,67,63,57,63,60,55,100,93,83,30.07,30.03,29.89,19,4,1,10,6,,0.12,6,Rain,300
2013-9-14,57,52,48,54,49,45,100,84,61,30.09,30.00,29.89,19,6,2,12,8,,0.00,6,Rain,332
2013-9-15,60,52,44,59,49,41,100,84,55,30.08,29.81,29.56,9,6,3,21,9,29,0.04,4,Fog-Rain,241
2013-9-16,59,52,46,46,41,36,81,62,34,29.65,29.62,29.59,19,8,6,23,14,28,0.01,2,,267
2013-9-17,59,52,46,57,48,41,94,82,59,29.66,29.53,29.36,19,6,2,15,10,,0.16,5,Rain,245
2013-9-18,61,56,48,54,47,41,94,74,41,29.89,29.65,29.42,16,7,4,14,7,,0.00,4,Rain,304
2013-9-19,63,54,44,59,49,42,94,82,65,29.92,29.83,29.74,19,6,3,21,9,34,0.01,4,Rain,247
2013-9-20,66,56,47,50,48,46,94,72,46,30.18,30.06,29.89,18,7,6,12,7,,0.00,4,,278
2013-9-21,66,58,49,61,54,46,94,84,71,30.31,30.25,30.18,14,6,3,13,6,22,0.00,6,Rain,221
2013-9-22,67,62,58,61,59,57,100,87,73,30.39,30.35,30.30,19,7,1,10,6,,0.00,6,Rain,242
2013-9-23,65,60,55,59,57,54,100,88,72,30.35,30.26,30.12,12,6,0,7,3,,0.00,6,Fog,117
2013-9-24,72,61,50,59,55,50,100,85,57,30.13,30.02,29.94,9,3,0,8,3,,0.00,4,Fog,65
2013-9-25,71,63,55,59,57,54,100,80,52,29.95,29.88,29.83,7,2,1,6,4,,0.00,3,Fog-Rain,63
2013-9-26,68,62,55,57,52,47,88,74,43,30.06,30.02,29.92,19,5,2,12,7,,0.00,4,,77
2013-9-27,65,58,50,52,50,46,94,78,46,30.06,30.01,29.92,19,9,4,15,7,,0.00,1,,79
2013-9-28,68,60,53,57,53,48,94,78,51,29.92,29.81,29.74,18,6,3,17,8,28,0.01,1,Rain,73
2013-9-29,66,62,57,54,53,51,88,77,55,29.77,29.73,29.71,19,8,6,15,10,,0.00,4,Rain,68
2013-9-30,66,60,55,55,53,49,88,76,45,29.80,29.72,29.68,19,8,5,14,8,,0.00,4,,80